NCAR-RAP Real-Time Weather Data

Output produced by METARs form (17 July 2018  04:05 UTC)
found at http://weather.rap.ucar.edu/surface/
 
Conditions at: KFPR observed 17 July 2018  03:53 UTC
Temperature: 26.1°C (79°F)
Dewpoint: 23.9°C (75°F) [RH = 88%]
Pressure (altimeter): 30.09 inches Hg (1019.0 mb)
[Sea-level pressure: 1018.9 mb]
Winds: from the SSW (200 degrees) at 3 MPH (3 knots; 1.6 m/s)
Visibility: 10 or more miles (16+ km)
Ceiling: at least 12,000 feet AGL
Clouds: sky clear below 12,000 feet AGL
Present Weather: automated observation with no human augmentation;
there may or may not be significant weather present at this time
KFPR 170353Z AUTO 20003KT 10SM CLR 26/24 A3009 RMK AO2 SLP189 T02610239

Conditions at: KFPR observed 17 July 2018  02:53 UTC
Temperature: 27.2°C (81°F)
Dewpoint: 23.9°C (75°F) [RH = 82%]
Pressure (altimeter): 30.09 inches Hg (1019.0 mb)
[Sea-level pressure: 1019.0 mb]
Winds: from the SSW (200 degrees) at 3 MPH (3 knots; 1.6 m/s)
Visibility: 10 or more miles (16+ km)
Ceiling: at least 12,000 feet AGL
Clouds: sky clear below 12,000 feet AGL
Present Weather: automated observation with no human augmentation;
there may or may not be significant weather present at this time
KFPR 170253Z AUTO 20003KT 10SM CLR 27/24 A3009 RMK AO2 SLP190 T02720239 53017

Conditions at: KFPR observed 17 July 2018  01:53 UTC
Temperature: 27.8°C (82°F)
Dewpoint: 23.9°C (75°F) [RH = 79%]
Pressure (altimeter): 30.08 inches Hg (1018.7 mb)
[Sea-level pressure: 1018.5 mb]
Winds: from the SW (230 degrees) at 3 MPH (3 knots; 1.6 m/s)
Visibility: 10 or more miles (16+ km)
Ceiling: at least 12,000 feet AGL
Clouds: sky clear below 12,000 feet AGL
Present Weather: automated observation with no human augmentation;
there may or may not be significant weather present at this time
KFPR 170153Z AUTO 23003KT 10SM CLR 28/24 A3008 RMK AO2 SLP185 T02780239

Conditions at: KFPR observed 17 July 2018  00:53 UTC
Temperature: 28.9°C (84°F)
Dewpoint: 23.3°C (74°F) [RH = 72%]
Pressure (altimeter): 30.05 inches Hg (1017.7 mb)
[Sea-level pressure: 1017.6 mb]
Winds: from the SSW (200 degrees) at 6 MPH (5 knots; 2.6 m/s)
Visibility: 10 or more miles (16+ km)
Ceiling: at least 12,000 feet AGL
Clouds: sky clear below 12,000 feet AGL
Present Weather: no significant weather observed at this time
KFPR 170053Z 20005KT 10SM CLR 29/23 A3005 RMK AO2 SLP176 T02890233

Conditions at: KFPR observed 16 July 2018  23:53 UTC
Temperature: 30.6°C (87°F)
Dewpoint: 24.4°C (76°F) [RH = 70%]
Pressure (altimeter): 30.04 inches Hg (1017.4 mb)
[Sea-level pressure: 1017.3 mb]
Winds: from the S (180 degrees) at 6 MPH (5 knots; 2.6 m/s)
Visibility: 10 or more miles (16+ km)
Ceiling: 4400 feet AGL
Clouds: broken clouds at 4400 feet AGL
Present Weather: no significant weather observed at this time
KFPR 162353Z 18005KT 10SM BKN044 31/24 A3004 RMK AO2 SLP173 T03060244 10328 20306 53002

Conditions at: KFPR observed 16 July 2018  22:53 UTC
Temperature: 31.7°C (89°F)
Dewpoint: 23.9°C (75°F) [RH = 63%]
Pressure (altimeter): 30.02 inches Hg (1016.7 mb)
[Sea-level pressure: 1016.3 mb]
Winds: from the SE (130 degrees) at 14 MPH (12 knots; 6.2 m/s)
Visibility: 10 or more miles (16+ km)
Ceiling: at least 12,000 feet AGL
Clouds: sky clear below 12,000 feet AGL
Present Weather: no significant weather observed at this time
KFPR 162253Z 13012KT 10SM CLR 32/24 A3002 RMK AO2 SLP163 T03170239

Conditions at: KFPR observed 16 July 2018  21:53 UTC
Temperature: 31.7°C (89°F)
Dewpoint: 22.2°C (72°F) [RH = 57%]
Pressure (altimeter): 30.03 inches Hg (1017.0 mb)
[Sea-level pressure: 1016.7 mb]
Winds: from the SE (130 degrees) at 15 MPH (13 knots; 6.8 m/s)
gusting to 22 MPH (19 knots; 9.9 m/s)
Visibility: 10 or more miles (16+ km)
Ceiling: at least 12,000 feet AGL
Clouds: scattered clouds at 5000 feet AGL
Present Weather: no significant weather observed at this time
KFPR 162153Z 13013G19KT 10SM SCT050 32/22 A3003 RMK AO2 SLP167 T03170222

Conditions at: KFPR observed 16 July 2018  20:53 UTC
Temperature: 32.2°C (90°F)
Dewpoint: 23.9°C (75°F) [RH = 62%]
Pressure (altimeter): 30.04 inches Hg (1017.4 mb)
[Sea-level pressure: 1017.1 mb]
Winds: from the SE (140 degrees) at 16 MPH (14 knots; 7.3 m/s)
Visibility: 10 or more miles (16+ km)
Ceiling: at least 12,000 feet AGL
Clouds: sky clear below 12,000 feet AGL
Present Weather: no significant weather observed at this time
KFPR 162053Z 14014KT 10SM CLR 32/24 A3004 RMK AO2 LTG DSNT W SLP171 T03220239 56012

Conditions at: KFPR observed 16 July 2018  19:53 UTC
Temperature: 32.2°C (90°F)
Dewpoint: 23.9°C (75°F) [RH = 62%]
Pressure (altimeter): 30.04 inches Hg (1017.4 mb)
[Sea-level pressure: 1017.3 mb]
Winds: from the SE (130 degrees) at 16 MPH (14 knots; 7.3 m/s)
Visibility: 10 or more miles (16+ km)
Ceiling: at least 12,000 feet AGL
Clouds: sky clear below 12,000 feet AGL
Present Weather: no significant weather observed at this time
KFPR 161953Z 13014KT 10SM CLR 32/24 A3004 RMK AO2 SLP173 T03220239

Conditions at: KFPR observed 16 July 2018  18:53 UTC
Temperature: 32.8°C (91°F)
Dewpoint: 23.9°C (75°F) [RH = 60%]
Pressure (altimeter): 30.05 inches Hg (1017.7 mb)
[Sea-level pressure: 1017.4 mb]
Winds: from the ESE (110 degrees) at 10 MPH (9 knots; 4.7 m/s)
Visibility: 10 or more miles (16+ km)
Ceiling: at least 12,000 feet AGL
Clouds: sky clear below 12,000 feet AGL
Present Weather: no significant weather observed at this time
KFPR 161853Z 11009KT 10SM CLR 33/24 A3005 RMK AO2 SLP174 T03280239

Conditions at: KFPR observed 16 July 2018  17:53 UTC
Temperature: 32.8°C (91°F)
Dewpoint: 23.9°C (75°F) [RH = 60%]
Pressure (altimeter): 30.07 inches Hg (1018.4 mb)
[Sea-level pressure: 1018.3 mb]
Winds: from the E (100 degrees) at 10 MPH (9 knots; 4.7 m/s)
Visibility: 10 or more miles (16+ km)
Ceiling: at least 12,000 feet AGL
Clouds: sky clear below 12,000 feet AGL
Present Weather: no significant weather observed at this time
KFPR 161753Z 10009KT 10SM CLR 33/24 A3007 RMK AO2 SLP183 T03280239 10333 20261 58005

Conditions at: KFPR observed 16 July 2018  16:53 UTC
Temperature: 32.8°C (91°F)
Dewpoint: 23.3°C (74°F) [RH = 58%]
Pressure (altimeter): 30.09 inches Hg (1019.0 mb)
[Sea-level pressure: 1018.7 mb]
Winds: from the ESE (120 degrees) at 10 MPH (9 knots; 4.7 m/s)
Visibility: 10 or more miles (16+ km)
Ceiling: at least 12,000 feet AGL
Clouds: sky clear below 12,000 feet AGL
Present Weather: no significant weather observed at this time
KFPR 161653Z 12009KT 10SM CLR 33/23 A3009 RMK AO2 SLP187 T03280233

Conditions at: KFPR observed 16 July 2018  15:53 UTC
Temperature: 32.2°C (90°F)
Dewpoint: 21.7°C (71°F) [RH = 54%]
Pressure (altimeter): 30.09 inches Hg (1019.0 mb)
[Sea-level pressure: 1018.9 mb]
Winds: calm
Visibility: 10 or more miles (16+ km)
Ceiling: at least 12,000 feet AGL
Clouds: few clouds at 4300 feet AGL
Present Weather: no significant weather observed at this time
KFPR 161553Z 00000KT 10SM FEW043 32/22 A3009 RMK AO2 SLP189 T03220217

Conditions at: KFPR observed 16 July 2018  14:53 UTC
Temperature: 31.1°C (88°F)
Dewpoint: 22.2°C (72°F) [RH = 59%]
Pressure (altimeter): 30.09 inches Hg (1019.0 mb)
[Sea-level pressure: 1018.8 mb]
Winds: variable direction winds at 3 MPH (3 knots; 1.6 m/s)
Visibility: 10 or more miles (16+ km)
Ceiling: at least 12,000 feet AGL
Clouds: sky clear below 12,000 feet AGL
Present Weather: no significant weather observed at this time
KFPR 161453Z VRB03KT 10SM CLR 31/22 A3009 RMK AO2 SLP188 T03110222 51004

Conditions at: KFPR observed 16 July 2018  13:53 UTC
Temperature: 30.6°C (87°F)
Dewpoint: 23.3°C (74°F) [RH = 65%]
Pressure (altimeter): 30.09 inches Hg (1019.0 mb)
[Sea-level pressure: 1018.8 mb]
Winds: variable direction winds at 5 MPH (4 knots; 2.1 m/s)
Visibility: 10 or more miles (16+ km)
Ceiling: at least 12,000 feet AGL
Clouds: sky clear below 12,000 feet AGL
Present Weather: no significant weather observed at this time
KFPR 161353Z VRB04KT 10SM CLR 31/23 A3009 RMK AO2 SLP188 T03060233

Conditions at: KFPR observed 16 July 2018  12:53 UTC
Temperature: 28.9°C (84°F)
Dewpoint: 24.4°C (76°F) [RH = 77%]
Pressure (altimeter): 30.09 inches Hg (1019.0 mb)
[Sea-level pressure: 1018.8 mb]
Winds: from the S (190 degrees) at 5 MPH (4 knots; 2.1 m/s)
Visibility: 10 or more miles (16+ km)
Ceiling: at least 12,000 feet AGL
Clouds: sky clear below 12,000 feet AGL
Present Weather: no significant weather observed at this time
KFPR 161253Z 19004KT 10SM CLR 29/24 A3009 RMK AO2 SLP188 T02890244

Conditions at: KFPR observed 16 July 2018  11:53 UTC
Temperature: 26.1°C (79°F)
Dewpoint: 24.4°C (76°F) [RH = 90%]
Pressure (altimeter): 30.08 inches Hg (1018.7 mb)
[Sea-level pressure: 1018.4 mb]
Winds: calm
Visibility: 10 or more miles (16+ km)
Ceiling: at least 12,000 feet AGL
Clouds: sky clear below 12,000 feet AGL
Present Weather: no significant weather observed at this time
KFPR 161153Z 00000KT 10SM CLR 26/24 A3008 RMK AO2 SLP184 T02610244 10261 20217 53012

Conditions at: KFPR observed 16 July 2018  10:53 UTC
Temperature: 22.2°C (72°F)
Dewpoint: 22.2°C (72°F) [RH = 100%]
Pressure (altimeter): 30.06 inches Hg (1018.0 mb)
[Sea-level pressure: 1017.8 mb]
Winds: calm
Visibility: 10 or more miles (16+ km)
Ceiling: at least 12,000 feet AGL
Clouds: sky clear below 12,000 feet AGL
Present Weather: automated observation with no human augmentation;
there may or may not be significant weather present at this time
KFPR 161053Z AUTO 00000KT 10SM CLR 22/22 A3006 RMK AO2 SLP178 T02220222

Conditions at: KFPR observed 16 July 2018  09:53 UTC
Temperature: 22.2°C (72°F)
Dewpoint: 21.7°C (71°F) [RH = 97%]
Pressure (altimeter): 30.05 inches Hg (1017.7 mb)
[Sea-level pressure: 1017.5 mb]
Winds: calm
Visibility: 5 miles (8 km)
Ceiling: at least 12,000 feet AGL
Clouds: sky clear below 12,000 feet AGL
Present Weather: BR  (mist)
KFPR 160953Z AUTO 00000KT 5SM BR CLR 22/22 A3005 RMK AO2 SLP175 T02220217

Conditions at: KFPR observed 16 July 2018  08:53 UTC
Temperature: 22.2°C (72°F)
Dewpoint: 22.2°C (72°F) [RH = 100%]
Pressure (altimeter): 30.04 inches Hg (1017.4 mb)
[Sea-level pressure: 1017.3 mb]
Winds: calm
Visibility: 9 miles (14 km)
Ceiling: at least 12,000 feet AGL
Clouds: sky clear below 12,000 feet AGL
Present Weather: automated observation with no human augmentation;
there may or may not be significant weather present at this time
KFPR 160853Z AUTO 00000KT 9SM CLR 22/22 A3004 RMK AO2 SLP173 T02220222 55006

Conditions at: KFPR observed 16 July 2018  07:53 UTC
Temperature: 22.8°C (73°F)
Dewpoint: 22.8°C (73°F) [RH = 100%]
Pressure (altimeter): 30.04 inches Hg (1017.4 mb)
[Sea-level pressure: 1017.2 mb]
Winds: calm
Visibility: 8 miles (13 km)
Ceiling: at least 12,000 feet AGL
Clouds: sky clear below 12,000 feet AGL
Present Weather: automated observation with no human augmentation;
there may or may not be significant weather present at this time
KFPR 160753Z AUTO 00000KT 8SM CLR 23/23 A3004 RMK AO2 SLP172 T02280228

Conditions at: KFPR observed 16 July 2018  06:53 UTC
Temperature: 22.8°C (73°F)
Dewpoint: 22.8°C (73°F) [RH = 100%]
Pressure (altimeter): 30.05 inches Hg (1017.7 mb)
[Sea-level pressure: 1017.4 mb]
Winds: calm
Visibility: 10 or more miles (16+ km)
Ceiling: at least 12,000 feet AGL
Clouds: sky clear below 12,000 feet AGL
Present Weather: automated observation with no human augmentation;
there may or may not be significant weather present at this time
KFPR 160653Z AUTO 00000KT 10SM CLR 23/23 A3005 RMK AO2 SLP174 T02280228

Conditions at: KFPR observed 16 July 2018  05:53 UTC
Temperature: 23.3°C (74°F)
Dewpoint: 22.8°C (73°F) [RH = 97%]
Pressure (altimeter): 30.06 inches Hg (1018.0 mb)
[Sea-level pressure: 1017.9 mb]
Winds: calm
Visibility: 10 or more miles (16+ km)
Ceiling: at least 12,000 feet AGL
Clouds: sky clear below 12,000 feet AGL
Present Weather: automated observation with no human augmentation;
there may or may not be significant weather present at this time
KFPR 160553Z AUTO 00000KT 10SM CLR 23/23 A3006 RMK AO2 SLP179 T02330228 10294 20233 50002

Conditions at: KFPR observed 16 July 2018  04:53 UTC
Temperature: 25.6°C (78°F)
Dewpoint: 23.3°C (74°F) [RH = 87%]
Pressure (altimeter): 30.07 inches Hg (1018.4 mb)
[Sea-level pressure: 1018.2 mb]
Winds: calm
Visibility: 10 or more miles (16+ km)
Ceiling: at least 12,000 feet AGL
Clouds: sky clear below 12,000 feet AGL
Present Weather: automated observation with no human augmentation;
there may or may not be significant weather present at this time
KFPR 160453Z AUTO 00000KT 10SM CLR 26/23 A3007 RMK AO2 SLP182 T02560233 403330222

Conditions at: KFPR observed 16 July 2018  03:53 UTC
Temperature: 25.6°C (78°F)
Dewpoint: 23.3°C (74°F) [RH = 87%]
Pressure (altimeter): 30.07 inches Hg (1018.4 mb)
[Sea-level pressure: 1018.3 mb]
Winds: from the SSW (210 degrees) at 3 MPH (3 knots; 1.6 m/s)
Visibility: 10 or more miles (16+ km)
Ceiling: at least 12,000 feet AGL
Clouds: sky clear below 12,000 feet AGL
Present Weather: automated observation with no human augmentation;
there may or may not be significant weather present at this time
KFPR 160353Z AUTO 21003KT 10SM CLR 26/23 A3007 RMK AO2 SLP183 T02560233

Conditions at: KFPR observed 16 July 2018  02:53 UTC
Temperature: 25.0°C (77°F)
Dewpoint: 23.9°C (75°F) [RH = 94%]
Pressure (altimeter): 30.06 inches Hg (1018.0 mb)
[Sea-level pressure: 1017.7 mb]
Winds: calm
Visibility: 10 or more miles (16+ km)
Ceiling: at least 12,000 feet AGL
Clouds: sky clear below 12,000 feet AGL
Present Weather: automated observation with no human augmentation;
there may or may not be significant weather present at this time
KFPR 160253Z AUTO 00000KT 10SM CLR 25/24 A3006 RMK AO2 SLP177 T02500239 53014

Conditions at: KFPR observed 16 July 2018  01:53 UTC
Temperature: 27.8°C (82°F)
Dewpoint: 23.3°C (74°F) [RH = 77%]
Pressure (altimeter): 30.04 inches Hg (1017.4 mb)
[Sea-level pressure: 1017.1 mb]
Winds: from the S (170 degrees) at 6 MPH (5 knots; 2.6 m/s)
Visibility: 10 or more miles (16+ km)
Ceiling: at least 12,000 feet AGL
Clouds: sky clear below 12,000 feet AGL
Present Weather: automated observation with no human augmentation;
there may or may not be significant weather present at this time
KFPR 160153Z AUTO 17005KT 10SM CLR 28/23 A3004 RMK AO2 SLP171 T02780233

Conditions at: KFPR observed 16 July 2018  00:53 UTC
Temperature: 28.9°C (84°F)
Dewpoint: 23.9°C (75°F) [RH = 74%]
Pressure (altimeter): 30.02 inches Hg (1016.7 mb)
[Sea-level pressure: 1016.6 mb]
Winds: from the SSE (160 degrees) at 3 MPH (3 knots; 1.6 m/s)
Visibility: 10 or more miles (16+ km)
Ceiling: at least 12,000 feet AGL
Clouds: sky clear below 12,000 feet AGL
Present Weather: no significant weather observed at this time
KFPR 160053Z 16003KT 10SM CLR 29/24 A3002 RMK AO2 SLP166 T02890239

Conditions at: KFPR observed 15 July 2018  23:53 UTC
Temperature: 29.4°C (85°F)
Dewpoint: 23.9°C (75°F) [RH = 72%]
Pressure (altimeter): 30.02 inches Hg (1016.7 mb)
[Sea-level pressure: 1016.3 mb]
Winds: from the SE (130 degrees) at 14 MPH (12 knots; 6.2 m/s)
Visibility: 10 or more miles (16+ km)
Ceiling: at least 12,000 feet AGL
Clouds: sky clear below 12,000 feet AGL
Present Weather: automated observation with no human augmentation;
there may or may not be significant weather present at this time
KFPR 152353Z AUTO 13012KT 10SM CLR 29/24 A3002 RMK AO2 SLP163 T02940239 10328 20294 58002

Conditions at: KFPR observed 15 July 2018  22:53 UTC
Temperature: 29.4°C (85°F)
Dewpoint: 24.4°C (76°F) [RH = 75%]
Pressure (altimeter): 30.02 inches Hg (1016.7 mb)
[Sea-level pressure: 1016.4 mb]
Winds: from the ESE (120 degrees) at 12 MPH (10 knots; 5.2 m/s)
Visibility: 10 or more miles (16+ km)
Ceiling: at least 12,000 feet AGL
Clouds: sky clear below 12,000 feet AGL
Present Weather: no significant weather observed at this time
KFPR 152253Z 12010KT 10SM CLR 29/24 A3002 RMK AO2 SLP164 T02940244

Conditions at: KFPR observed 15 July 2018  21:53 UTC
Temperature: 30.6°C (87°F)
Dewpoint: 23.3°C (74°F) [RH = 65%]
Pressure (altimeter): 30.02 inches Hg (1016.7 mb)
[Sea-level pressure: 1016.6 mb]
Winds: from the ESE (120 degrees) at 12 MPH (10 knots; 5.2 m/s)
Visibility: 10 or more miles (16+ km)
Ceiling: at least 12,000 feet AGL
Clouds: sky clear below 12,000 feet AGL
Present Weather: no significant weather observed at this time
KFPR 152153Z 12010KT 10SM CLR 31/23 A3002 RMK AO2 SLP166 T03060233

Conditions at: KFPR observed 15 July 2018  20:53 UTC
Temperature: 31.7°C (89°F)
Dewpoint: 23.3°C (74°F) [RH = 61%]
Pressure (altimeter): 30.02 inches Hg (1016.7 mb)
[Sea-level pressure: 1016.5 mb]
Winds: from the E (100 degrees) at 10 MPH (9 knots; 4.7 m/s)
Visibility: 10 or more miles (16+ km)
Ceiling: at least 12,000 feet AGL
Clouds: sky clear below 12,000 feet AGL
Present Weather: no significant weather observed at this time
KFPR 152053Z 10009KT 10SM CLR 32/23 A3002 RMK AO2 LTG DSNT SW AND W SLP165 T03170233 57013

Conditions at: KFPR observed 15 July 2018  19:53 UTC
Temperature: 31.7°C (89°F)
Dewpoint: 22.8°C (73°F) [RH = 59%]
Pressure (altimeter): 30.03 inches Hg (1017.0 mb)
[Sea-level pressure: 1016.8 mb]
Winds: from the ESE (120 degrees) at 14 MPH (12 knots; 6.2 m/s)
Visibility: 10 or more miles (16+ km)
Ceiling: at least 12,000 feet AGL
Clouds: sky clear below 12,000 feet AGL
Present Weather: no significant weather observed at this time
KFPR 151953Z 12012KT 10SM CLR 32/23 A3003 RMK AO2 LTG DSNT SW AND NW SLP168 T03170228

Conditions at: KFPR observed 15 July 2018  18:53 UTC
Temperature: 32.2°C (90°F)
Dewpoint: 22.8°C (73°F) [RH = 58%]
Pressure (altimeter): 30.05 inches Hg (1017.7 mb)
[Sea-level pressure: 1017.5 mb]
Winds: from the E (100 degrees) at 13 MPH (11 knots; 5.7 m/s)
Visibility: 10 or more miles (16+ km)
Ceiling: at least 12,000 feet AGL
Clouds: sky clear below 12,000 feet AGL
Present Weather: no significant weather observed at this time
KFPR 151853Z 10011KT 10SM CLR 32/23 A3005 RMK AO2 LTG DSNT S SLP175 T03220228

Conditions at: KFPR observed 15 July 2018  17:53 UTC
Temperature: 32.8°C (91°F)
Dewpoint: 22.8°C (73°F) [RH = 56%]
Pressure (altimeter): 30.06 inches Hg (1018.0 mb)
[Sea-level pressure: 1017.8 mb]
Winds: from the E (80 degrees) at 8 MPH (7 knots; 3.6 m/s)
Visibility: 10 or more miles (16+ km)
Ceiling: at least 12,000 feet AGL
Clouds: sky clear below 12,000 feet AGL
Present Weather: no significant weather observed at this time
KFPR 151753Z 08007KT 10SM CLR 33/23 A3006 RMK AO2 SLP178 T03280228 10333 20250 58006

Conditions at: KFPR observed 15 July 2018  16:53 UTC
Temperature: 32.2°C (90°F)
Dewpoint: 22.2°C (72°F) [RH = 56%]
Pressure (altimeter): 30.07 inches Hg (1018.4 mb)
[Sea-level pressure: 1018.2 mb]
Winds: from the E (80 degrees) at 8 MPH (7 knots; 3.6 m/s)
Visibility: 10 or more miles (16+ km)
Ceiling: at least 12,000 feet AGL
Clouds: few clouds at 4400 feet AGL
Present Weather: no significant weather observed at this time
KFPR 151653Z 08007KT 10SM FEW044 32/22 A3007 RMK AO2 SLP182 T03220222

Conditions at: KFPR observed 15 July 2018  15:53 UTC
Temperature: 32.2°C (90°F)
Dewpoint: 21.1°C (70°F) [RH = 52%]
Pressure (altimeter): 30.08 inches Hg (1018.7 mb)
[Sea-level pressure: 1018.4 mb]
Winds: calm
Visibility: 10 or more miles (16+ km)
Ceiling: at least 12,000 feet AGL
Clouds: sky clear below 12,000 feet AGL
Present Weather: no significant weather observed at this time
KFPR 151553Z 00000KT 10SM CLR 32/21 A3008 RMK AO2 SLP184 T03220211

Conditions at: KFPR observed 15 July 2018  14:53 UTC
Temperature: 30.6°C (87°F)
Dewpoint: 22.2°C (72°F) [RH = 61%]
Pressure (altimeter): 30.08 inches Hg (1018.7 mb)
[Sea-level pressure: 1018.4 mb]
Winds: variable direction winds at 3 MPH (3 knots; 1.6 m/s)
Visibility: 10 or more miles (16+ km)
Ceiling: at least 12,000 feet AGL
Clouds: sky clear below 12,000 feet AGL
Present Weather: no significant weather observed at this time
KFPR 151453Z VRB03KT 10SM CLR 31/22 A3008 RMK AO2 SLP184 T03060222 51008

Conditions at: KFPR observed 15 July 2018  13:53 UTC
Temperature: 30.0°C (86°F)
Dewpoint: 22.2°C (72°F) [RH = 63%]
Pressure (altimeter): 30.07 inches Hg (1018.4 mb)
[Sea-level pressure: 1018.3 mb]
Winds: from the W (270 degrees) at 5 MPH (4 knots; 2.1 m/s)
Visibility: 10 or more miles (16+ km)
Ceiling: at least 12,000 feet AGL
Clouds: sky clear below 12,000 feet AGL
Present Weather: no significant weather observed at this time
KFPR 151353Z 27004KT 10SM CLR 30/22 A3007 RMK AO2 SLP183 T03000222

Conditions at: KFPR observed 15 July 2018  12:53 UTC
Temperature: 27.2°C (81°F)
Dewpoint: 23.9°C (75°F) [RH = 82%]
Pressure (altimeter): 30.07 inches Hg (1018.4 mb)
[Sea-level pressure: 1018.1 mb]
Winds: calm
Visibility: 10 or more miles (16+ km)
Ceiling: at least 12,000 feet AGL
Clouds: sky clear below 12,000 feet AGL
Present Weather: no significant weather observed at this time
KFPR 151253Z 00000KT 10SM CLR 27/24 A3007 RMK AO2 SLP181 T02720239

Conditions at: KFPR observed 15 July 2018  11:53 UTC
Temperature: 25.0°C (77°F)
Dewpoint: 24.4°C (76°F) [RH = 96%]
Pressure (altimeter): 30.05 inches Hg (1017.7 mb)
[Sea-level pressure: 1017.6 mb]
Winds: calm
Visibility: 10 or more miles (16+ km)
Ceiling: at least 12,000 feet AGL
Clouds: sky clear below 12,000 feet AGL
Present Weather: no significant weather observed at this time
KFPR 151153Z 00000KT 10SM CLR 25/24 A3005 RMK AO2 SLP176 T02500244 10250 20222 53004

Conditions at: KFPR observed 15 July 2018  10:53 UTC
Temperature: 22.8°C (73°F)
Dewpoint: 22.8°C (73°F) [RH = 100%]
Pressure (altimeter): 30.05 inches Hg (1017.7 mb)
[Sea-level pressure: 1017.5 mb]
Winds: calm
Visibility: 6 miles (10 km)
Ceiling: at least 12,000 feet AGL
Clouds: sky clear below 12,000 feet AGL
Present Weather: BR  (mist)
KFPR 151053Z AUTO 00000KT 6SM BR CLR 23/23 A3005 RMK AO2 SLP175 T02280228

Conditions at: KFPR observed 15 July 2018  09:53 UTC
Temperature: 22.8°C (73°F)
Dewpoint: 22.8°C (73°F) [RH = 100%]
Pressure (altimeter): 30.04 inches Hg (1017.4 mb)
[Sea-level pressure: 1017.0 mb]
Winds: calm
Visibility: 8 miles (13 km)
Ceiling: at least 12,000 feet AGL
Clouds: sky clear below 12,000 feet AGL
Present Weather: automated observation with no human augmentation;
there may or may not be significant weather present at this time
KFPR 150953Z AUTO 00000KT 8SM CLR 23/23 A3004 RMK AO2 SLP170 T02280228

Conditions at: KFPR observed 15 July 2018  08:53 UTC
Temperature: 23.3°C (74°F)
Dewpoint: 23.3°C (74°F) [RH = 100%]
Pressure (altimeter): 30.04 inches Hg (1017.4 mb)
[Sea-level pressure: 1017.2 mb]
Winds: calm
Visibility: 9 miles (14 km)
Ceiling: at least 12,000 feet AGL
Clouds: sky clear below 12,000 feet AGL
Present Weather: automated observation with no human augmentation;
there may or may not be significant weather present at this time
KFPR 150853Z AUTO 00000KT 9SM CLR 23/23 A3004 RMK AO2 SLP172 T02330233 55003

Conditions at: KFPR observed 15 July 2018  07:53 UTC
Temperature: 23.9°C (75°F)
Dewpoint: 23.3°C (74°F) [RH = 96%]
Pressure (altimeter): 30.04 inches Hg (1017.4 mb)
[Sea-level pressure: 1017.0 mb]
Winds: calm
Visibility: 10 or more miles (16+ km)
Ceiling: at least 12,000 feet AGL
Clouds: sky clear below 12,000 feet AGL
Present Weather: automated observation with no human augmentation;
there may or may not be significant weather present at this time
KFPR 150753Z AUTO 00000KT 10SM CLR 24/23 A3004 RMK AO2 SLP170 T02390233

Conditions at: KFPR observed 15 July 2018  06:53 UTC
Temperature: 24.4°C (76°F)
Dewpoint: 23.3°C (74°F) [RH = 94%]
Pressure (altimeter): 30.04 inches Hg (1017.4 mb)
[Sea-level pressure: 1017.2 mb]
Winds: calm
Visibility: 10 or more miles (16+ km)
Ceiling: 5000 feet AGL
Clouds: broken clouds at 5000 feet AGL
overcast cloud deck at 6000 feet AGL
Present Weather: automated observation with no human augmentation;
there may or may not be significant weather present at this time
KFPR 150653Z AUTO 00000KT 10SM BKN050 OVC060 24/23 A3004 RMK AO2 SLP172 T02440233

Conditions at: KFPR observed 15 July 2018  05:53 UTC
Temperature: 23.9°C (75°F)
Dewpoint: 22.2°C (72°F) [RH = 90%]
Pressure (altimeter): 30.05 inches Hg (1017.7 mb)
[Sea-level pressure: 1017.6 mb]
Winds: calm
Visibility: 10 or more miles (16+ km)
Ceiling: at least 12,000 feet AGL
Clouds: sky clear below 12,000 feet AGL
Present Weather: automated observation with no human augmentation;
there may or may not be significant weather present at this time
KFPR 150553Z AUTO 00000KT 10SM CLR 24/22 A3005 RMK AO2 SLP176 T02390222 10289 20239 58011

Conditions at: KFPR observed 15 July 2018  04:53 UTC
Temperature: 25.6°C (78°F)
Dewpoint: 22.2°C (72°F) [RH = 82%]
Pressure (altimeter): 30.07 inches Hg (1018.4 mb)
[Sea-level pressure: 1018.2 mb]
Winds: from the SSE (160 degrees) at 3 MPH (3 knots; 1.6 m/s)
Visibility: 10 or more miles (16+ km)
Ceiling: at least 12,000 feet AGL
Clouds: sky clear below 12,000 feet AGL
Present Weather: automated observation with no human augmentation;
there may or may not be significant weather present at this time
KFPR 150453Z AUTO 16003KT 10SM CLR 26/22 A3007 RMK AO2 SLP182 T02560222 403220217